AirNav   Phillips 66 Aviation Fuel
 
 1454 users online  

80C Lone Hickory Airport
Yadkinville, North Carolina, USA

GOING TO YADKINVILLE?


FAA INFORMATION EFFECTIVE 16 AUGUST 2018

Location

FAA Identifier: 80C
Lat/Long: 36-03-37.8520N / 080-41-24.3600W
36-03.630867N / 080-41.406000W
36.0605144 / -80.6901000
(estimated)
Elevation: 1015 ft. / 309 m (estimated)
Variation: 06W (1995)
From city: 6 miles S of YADKINVILLE, NC
Time zone: UTC -4 (UTC -5 during Standard Time)
Zip code: 27055

Airport Operations

Airport use: Open to the public
Activation date: 12/1997
Control tower: no
ARTCC: ATLANTA CENTER
FSS: RALEIGH FLIGHT SERVICE STATION
NOTAMs facility: RDU (NOTAM-D service available)
Attendance: IREG
Wind indicator: yes
Segmented circle: no

Airport Communications

CTAF: 122.9

Nearby radio navigation aids

VOR radial/distance  VOR name  Freq  Var
BZMr073/29.1BARRETTS MOUNTAIN VOR/DME110.8006W
GSOr274/34.6GREENSBORO VORTAC116.2003W

 
NDB name  Hdg/Dist  Freq  Var  ID
ZEPHYR181/15.132608WZEF --.. . ..-.
LINCOLNTON038/36.843206WIZN .. --.. -.
ASHEE133/37.941007WJUH .--- ..- ....

Airport Services

Runway Information

Runway 16/34

Dimensions: 2000 x 60 ft. / 610 x 18 m
Surface: turf, in good condition
Gradient: S.
RUNWAY 16  RUNWAY 34
Latitude: 36-03.773400N36-03.488333N
Longitude: 080-41.508000W080-41.304000W
Elevation: 943.0 ft.1015.0 ft.
Gradient: 3.6% UP
Traffic pattern: leftleft
Runway heading: 156 magnetic, 150 true336 magnetic, 330 true
Obstructions: 10 ft. road, 14 ft. from runway, 54 ft. left and right of centerline97 ft. trees, 737 ft. from runway, 79 ft. right of centerline, 7:1 slope to clear

Airport Ownership and Management from official FAA records

Ownership: Privately-owned
Owner: HAROLD HOLCOMB & JEFF STEELE
1205 RUNWAY TRAIL
YADKINVILLE, NC 27055
Phone (336) 468-0641
STEELE'S ADDRESS: 1208 RUNWAY TRAIL YADKINVILLE, NC 27055
Manager: HAROLD DEAN HOLCOMB
1205 RUNWAY TRAIL
YADKINVILLE, NC 27055
Phone (336) 468-0641

Airport Operational Statistics

Aircraft based on the field: 6
Single engine airplanes: 6
    
Aircraft operations: avg 46/month *
91% local general aviation
9% transient general aviation
* for 12-month period ending 27 August 2016

Additional Remarks

ACFT OPERATING FM PINEY RIDGE ARPT 1.3 MI NW.
PLINES 500-1000 FT N RY 16 THLD.
RY 16/34 HAS 3% GRADE; WINDS PERMITTING TKOF RY 16 LND RY 34.
NO FLIGHT TRAINING OR STUDENT PILOTS; ONLY EXPERIENCED PILOTS PERMITTED.
RY 16 DEPARTURES MAKE LEFT TURN FOR NOISE & OBSTRUCTION AVOIDANCE.

Instrument Procedures

There are no published instrument procedures at 80C.

Some nearby airports with instrument procedures:

KZEF - Elkin Municipal Airport (14 nm N)
8A7 - Twin Lakes Airport (14 nm SE)
KSVH - Statesville Regional Airport (22 nm SW)
KUKF - Wilkes County Airport (22 nm NW)
KINT - Smith Reynolds Airport (23 nm E)
 
Loc | Ops | Rwys | IFR | FBO | Links
Com | Nav | Svcs | Stats | Notes


 
Area around 80C (Lone Hickory Airport)
 
Road maps at: MapQuest Bing Google
 
Aerial photo
No photo
 
Sectional chart

 
Airport distance calculator
Flying to Lone Hickory Airport? Find the distance to fly.

From to 80C

Sunrise and sunset
Times for 17-Aug-2018
 Local
(UTC-4)
 Zulu
(UTC)
Morning civil twilight06:1710:17
Sunrise06:4410:44
Sunset20:1000:10
Evening civil twilight20:3700:37

Current date and time
Zulu (UTC)  17-Aug-2018 17:31:08
Local (UTC-4)  17-Aug-2018 13:31:08
 
METAR
KUKF 
22nm NW 
171710Z AUTO 21004KT 10SM CLR 29/23 A3018 RMK AO2
KSVH 
23nm SW 
171710Z AUTO 22007KT 190V260 10SM BKN038 30/21 A3013 RMK AO2 T03010214
KINT 
23nm E 
171654Z 22009G15KT 10SM BKN033 30/22 A3013 RMK AO2 SLP190 T03000217
KEXX 
25nm SE 
171710Z AUTO 10SM CLR 30/22 A3012 RMK AO2 T03010216
KMWK 
25nm N 
171715Z AUTO 20006KT 10SM SCT029 SCT034 30/24 A3015 RMK AO2 T02980240
KRUQ 
26nm S 
171710Z AUTO 22009KT 10SM CLR 30/20 A3013 RMK AO2 T02990202
KGSO 
36nm E 
171654Z 23012KT 10SM SCT038 BKN250 31/22 A3012 RMK AO2 SLP187 T03060222
KHKY 
38nm SW 
171653Z 19009KT 10SM SCT030 29/22 A3014 RMK AO2 SLP183 T02890222
KJQF 
41nm S 
171650Z 26011G17KT 10SM SKC 32/19 A3016
KGEV 
42nm NW 
171715Z AUTO 14003KT 10SM SCT040 SCT048 SCT075 25/20 A3024 RMK AO2 T02500195
TAF
KINT 
23nm E 
171120Z 1712/1812 22005KT P6SM FEW050 SCT250 FM171900 22008KT P6SM SCT050 BKN250
NOTAMs
Click for the latest NOTAMs
NOTAMs are issued by the DoD/FAA and will open in a separate window not controlled by AirNav.

 

 
 

Would you like to see your business listed on this page?

 If your business provides an interesting product or service to pilots, flight crews, aircraft, or users of the Lone Hickory Airport, you should consider listing it here.  To start the listing process, click on the button below
 
Add a business
 

Other Pages about Lone Hickory Airport

Update a link
 
Copyright © AirNav, LLC. All rights reserved. Privacy Policy  Contact